Terminal Aerodrome Forecast
Issued by NWS

Home | Current Version | Previous Version | Text Only | Print | Product List | Glossary On
Versions: 1 2 3 4 5 6 7 8 9 10 11 12 13 14 15 16 17 18 19 20 21 22 23 24 25 26
719
FTUS41 KBUF 301723
TAFIAG
TAF
KIAG 301723Z 3018/0118 08013G18KT P6SM SCT050 BKN090
     FM302100 09013G21KT P6SM OVC060
     FM302300 09013G23KT P6SM OVC045
     FM010700 09011G19KT P6SM VCSH OVC025
     FM010900 09010G18KT 6SM -SHRA OVC015
     FM011600 09011G19KT 6SM -SHRA OVC025=

USA.gov is the U.S. government's official web portal to all federal, state and local government web resources and services.